createdAt,value
2019-05-15T00:02:14.443Z,8.50
2019-05-15T00:04:40.489Z,8.50
2019-05-15T00:07:08.803Z,8.40
2019-05-15T00:09:34.431Z,8.40
2019-05-15T00:12:00.444Z,8.40
2019-05-15T00:14:28.653Z,8.40
2019-05-15T00:16:54.386Z,8.30
2019-05-15T00:19:20.411Z,8.30
2019-05-15T00:21:48.834Z,8.20
2019-05-15T00:24:14.331Z,8.20
2019-05-15T00:26:40.341Z,8.20
2019-05-15T00:29:14.826Z,8.20
2019-05-15T00:31:34.270Z,8.20
2019-05-15T00:34:00.300Z,8.20
2019-05-15T00:36:28.511Z,8.20
2019-05-15T00:38:54.310Z,8.20
2019-05-15T00:41:20.304Z,8.20
2019-05-15T00:43:46.348Z,8.10
2019-05-15T00:46:12.359Z,8.10
2019-05-15T00:48:39.812Z,8.10
2019-05-15T00:51:08.295Z,8.10
2019-05-15T00:53:34.037Z,8.00
2019-05-15T00:56:00.040Z,8.00
2019-05-15T00:58:28.132Z,8.00
2019-05-15T01:00:54.103Z,7.90
2019-05-15T01:03:20.245Z,7.90
2019-05-15T01:05:48.022Z,7.90
2019-05-15T01:08:14.243Z,7.80
2019-05-15T01:10:40.257Z,7.80
2019-05-15T01:13:08.469Z,7.80
2019-05-15T01:15:34.293Z,7.80
2019-05-15T01:18:00.311Z,7.80
2019-05-15T01:20:28.516Z,7.80
2019-05-15T01:22:54.288Z,7.70
2019-05-15T01:25:20.310Z,7.70
2019-05-15T01:27:46.318Z,7.70
2019-05-15T01:30:34.132Z,7.70
2019-05-15T01:33:00.155Z,7.60
2019-05-15T01:35:28.563Z,7.60
2019-05-15T01:37:54.208Z,7.60
2019-05-15T01:40:20.231Z,7.60
2019-05-15T01:42:46.236Z,7.50
2019-05-15T01:45:12.666Z,7.60
2019-05-15T01:47:39.161Z,7.50
2019-05-15T01:50:08.932Z,7.50
2019-05-15T01:52:34.639Z,7.50
2019-05-15T01:55:02.041Z,7.50
2019-05-15T01:57:28.750Z,7.50
2019-05-15T02:00:00.277Z,7.40
2019-05-15T02:02:23.019Z,7.40
2019-05-15T02:04:49.045Z,7.40
2019-05-15T02:07:15.075Z,7.30
2019-05-15T02:09:41.104Z,7.30
2019-05-15T02:12:08.674Z,7.30
2019-05-15T02:14:34.940Z,7.30
2019-05-15T02:17:00.955Z,7.20
2019-05-15T02:19:28.788Z,7.20
2019-05-15T02:21:54.899Z,7.20
2019-05-15T02:24:20.938Z,7.20
2019-05-15T15:17:51.847Z,23.10
2019-05-15T15:20:18.574Z,24.70
2019-05-15T15:22:44.587Z,26.70
2019-05-15T15:25:10.888Z,28.20
2019-05-15T15:27:38.652Z,28.90
2019-05-15T15:30:08.853Z,30.10
2019-05-15T15:32:34.452Z,30.70
2019-05-15T15:35:01.965Z,31.30
2019-05-15T15:37:28.760Z,32.50
2019-05-15T15:39:55.830Z,33.80
2019-05-15T15:42:21.879Z,35.00
2019-05-15T15:44:48.876Z,35.10
2019-05-15T15:47:15.304Z,35.60
2019-05-15T15:49:41.339Z,36.40
2019-05-15T15:52:08.726Z,36.10
2019-05-15T15:54:35.088Z,36.30
2019-05-15T15:57:01.101Z,36.90
2019-05-15T15:59:31.900Z,37.00
2019-05-15T16:01:59.901Z,37.00
2019-05-15T16:04:28.079Z,36.90
2019-05-15T16:06:53.831Z,36.60
2019-05-15T16:09:19.869Z,36.60
2019-05-15T16:11:45.983Z,36.60
2019-05-15T16:14:12.056Z,35.60
2019-05-15T16:16:38.216Z,35.40
2019-05-15T16:19:04.329Z,34.90
2019-05-15T16:21:30.395Z,34.60
2019-05-15T16:23:58.269Z,34.90
2019-05-15T16:26:24.392Z,35.00
2019-05-15T16:28:50.447Z,34.90
2019-05-15T16:31:18.520Z,33.90
2019-05-15T16:33:44.387Z,33.30
2019-05-15T16:36:10.444Z,32.80
2019-05-15T16:38:38.802Z,31.30
2019-05-15T16:41:04.540Z,30.60
2019-05-15T16:43:30.551Z,30.10
2019-05-15T16:45:58.724Z,29.70
2019-05-15T16:48:24.519Z,29.20
2019-05-15T16:50:50.554Z,29.00
2019-05-15T16:53:18.270Z,29.10
2019-05-15T16:55:44.514Z,29.50
2019-05-15T16:58:10.931Z,28.30
2019-05-15T17:00:38.415Z,26.70
2019-05-15T17:03:13.473Z,26.00
2019-05-15T17:05:32.615Z,25.40
2019-05-15T17:07:58.645Z,24.40
2019-05-15T17:10:24.719Z,23.30
2019-05-15T17:12:50.732Z,23.20
2019-05-15T17:15:17.159Z,23.00
2019-05-15T17:17:43.167Z,23.20
2019-05-15T17:20:10.040Z,22.10
2019-05-15T17:22:38.090Z,21.50
2019-05-15T17:25:04.756Z,20.70
2019-05-15T17:27:30.797Z,20.10
2019-05-15T17:29:58.418Z,19.60
2019-05-15T17:32:25.882Z,19.10
2019-05-15T17:34:51.903Z,18.60
2019-05-15T17:37:18.299Z,18.30
2019-05-15T17:39:49.783Z,18.00
2019-05-15T17:42:17.974Z,17.60
2019-05-15T17:44:43.761Z,17.40
2019-05-15T17:47:12.011Z,17.10
2019-05-15T17:49:38.568Z,16.80
2019-05-15T17:52:04.860Z,16.70
2019-05-15T17:54:30.875Z,16.50
2019-05-15T17:56:58.474Z,16.40
2019-05-15T17:59:24.756Z,16.20
2019-05-15T18:04:18.929Z,15.90
2019-05-15T18:06:45.419Z,15.80
2019-05-15T18:09:11.440Z,15.70
2019-05-15T18:11:38.335Z,15.60
2019-05-15T18:14:04.578Z,15.50
2019-05-15T18:16:30.602Z,15.40
2019-05-15T18:18:58.632Z,15.30
2019-05-15T18:21:25.049Z,15.30
2019-05-15T18:23:51.061Z,15.10
2019-05-15T18:26:18.356Z,15.00
2019-05-15T18:28:44.508Z,14.90
2019-05-15T18:31:10.761Z,14.80
2019-05-15T18:33:39.767Z,14.70
2019-05-15T18:36:04.938Z,14.70
2019-05-15T18:38:32.091Z,14.60
2019-05-15T18:40:58.451Z,14.50
2019-05-15T18:43:24.516Z,14.40
2019-05-15T18:45:58.708Z,14.30
2019-05-15T18:48:24.804Z,14.20
2019-05-15T18:50:50.815Z,14.10
2019-05-15T18:53:16.851Z,14.10
2019-05-15T18:55:42.867Z,13.90
2019-05-15T18:58:09.061Z,13.90
2019-05-15T19:00:36.183Z,13.80
2019-05-15T19:03:16.006Z,13.70
2019-05-15T19:05:30.460Z,13.60
2019-05-15T19:07:57.891Z,13.50
2019-05-15T19:10:24.208Z,13.50
2019-05-15T19:12:50.232Z,13.40
2019-05-15T19:15:17.881Z,13.30
2019-05-15T19:17:44.219Z,13.20
2019-05-15T19:20:10.731Z,13.10
2019-05-15T19:22:40.325Z,13.00
2019-05-15T19:25:08.594Z,12.90
2019-05-15T19:27:34.095Z,12.90
2019-05-15T19:30:00.116Z,12.80
2019-05-15T19:32:46.039Z,12.70
2019-05-15T19:35:12.299Z,12.50
2019-05-15T19:37:58.870Z,12.60
2019-05-15T19:40:28.345Z,12.60
2019-05-15T19:42:54.023Z,12.50
2019-05-15T19:45:20.319Z,12.40
2019-05-15T19:47:47.812Z,12.40
2019-05-15T19:50:14.759Z,12.30
2019-05-15T19:52:41.675Z,12.30
2019-05-15T19:55:08.919Z,12.30
2019-05-15T19:57:35.181Z,12.20
2019-05-15T20:00:04.475Z,12.20
2019-05-15T20:02:30.495Z,12.20
2019-05-15T20:04:58.319Z,12.20
2019-05-15T20:07:24.489Z,12.20
2019-05-15T20:09:50.525Z,12.20
2019-05-15T20:12:18.599Z,12.20
2019-05-15T20:14:44.517Z,12.20
2019-05-15T20:17:10.538Z,12.20
2019-05-15T20:19:38.270Z,12.10
2019-05-15T20:22:04.596Z,12.10
2019-05-15T20:24:30.707Z,12.00
2019-05-15T20:26:56.800Z,12.00
2019-05-15T20:29:22.824Z,11.90
2019-05-15T20:31:48.831Z,11.90
2019-05-15T20:34:14.910Z,11.90
2019-05-15T20:36:41.253Z,11.80
2019-05-15T20:39:08.262Z,11.70
2019-05-15T20:41:34.484Z,11.70
2019-05-15T20:44:02.435Z,11.60
2019-05-15T20:46:29.041Z,11.60
2019-05-15T20:48:57.723Z,11.60
2019-05-15T20:51:23.182Z,11.60
2019-05-15T20:53:50.289Z,11.60
2019-05-15T20:56:16.291Z,11.60
2019-05-15T20:58:42.727Z,11.60
2019-05-15T21:01:21.864Z,11.60
2019-05-15T21:03:50.588Z,11.60
2019-05-15T21:06:17.746Z,11.40
2019-05-15T21:08:49.867Z,11.40
2019-05-15T21:11:17.963Z,11.40
2019-05-15T21:13:43.929Z,11.30
2019-05-15T21:16:09.989Z,11.30
2019-05-15T21:18:37.941Z,11.20
2019-05-15T21:21:03.936Z,11.10
2019-05-15T21:23:30.143Z,11.10
2019-05-15T21:25:59.081Z,11.00
2019-05-15T21:28:25.345Z,11.00
2019-05-15T21:30:51.351Z,10.90
2019-05-15T21:33:17.747Z,10.90
2019-05-15T21:35:43.992Z,10.90
2019-05-15T21:38:10.039Z,10.80
2019-05-15T21:40:43.087Z,10.80
2019-05-15T21:43:09.125Z,10.80
2019-05-15T21:45:35.125Z,10.70
2019-05-15T21:48:02.147Z,10.70
2019-05-15T21:50:28.460Z,10.60
2019-05-15T21:52:54.594Z,10.60
2019-05-15T21:55:20.707Z,10.50
2019-05-15T21:57:47.063Z,10.50
2019-05-15T22:00:38.303Z,10.50
2019-05-15T22:03:04.335Z,10.40
2019-05-15T22:05:30.450Z,10.40
2019-05-15T22:07:58.679Z,10.30
2019-05-15T22:10:24.727Z,10.30
2019-05-15T22:12:50.979Z,10.20
2019-05-15T22:15:19.063Z,10.10
2019-05-15T22:17:45.126Z,10.10
2019-05-15T22:20:11.555Z,10.00
2019-05-15T22:22:37.583Z,10.00
2019-05-15T22:25:08.548Z,9.90
2019-05-15T22:27:35.480Z,9.90
2019-05-15T22:30:01.593Z,9.90
2019-05-15T22:32:29.185Z,9.80
2019-05-15T22:35:07.033Z,9.80
2019-05-15T22:37:23.539Z,9.80
